createdAt,value
2022-08-28T00:01:10.943Z,24.51
2022-08-28T00:04:14.010Z,24.51
2022-08-28T00:07:17.175Z,24.50
2022-08-28T00:10:22.727Z,24.50
2022-08-28T00:13:26.346Z,24.50
2022-08-28T00:16:30.563Z,24.50
2022-08-28T00:19:38.498Z,24.50
2022-08-28T00:22:42.761Z,24.50
2022-08-28T00:25:47.239Z,24.47
2022-08-28T00:28:49.360Z,24.45
2022-08-28T00:31:52.599Z,24.42
2022-08-28T00:34:55.622Z,24.41
2022-08-28T00:37:58.641Z,24.40
2022-08-28T00:41:04.934Z,24.40
2022-08-28T00:44:12.718Z,24.38
2022-08-28T00:47:15.696Z,24.40
2022-08-28T00:50:23.965Z,24.37
2022-08-28T00:53:27.111Z,24.36
2022-08-28T00:56:38.829Z,24.34
2022-08-28T00:59:41.984Z,24.35
2022-08-28T01:02:45.042Z,24.34
2022-08-28T01:05:49.282Z,24.33
2022-08-28T01:08:53.843Z,24.32
2022-08-28T01:12:03.174Z,24.32
2022-08-28T01:15:13.944Z,24.33
2022-08-28T01:18:17.812Z,24.32
2022-08-28T01:21:29.310Z,24.32
2022-08-28T01:24:35.576Z,24.31
2022-08-28T01:27:41.841Z,24.30
2022-08-28T01:30:48.647Z,24.30
2022-08-28T01:33:52.541Z,24.28
2022-08-28T01:36:55.673Z,24.25
2022-08-28T01:40:03.330Z,24.25
2022-08-28T01:43:12.574Z,24.24
2022-08-28T01:46:15.673Z,24.24
2022-08-28T01:49:19.209Z,24.24
2022-08-28T01:52:24.138Z,24.24
2022-08-28T01:55:30.961Z,24.25
2022-08-28T01:58:38.285Z,24.25
2022-08-28T02:01:43.005Z,24.23
2022-08-28T02:04:48.238Z,24.24
2022-08-28T02:07:52.102Z,24.21
2022-08-28T02:10:56.490Z,24.22
2022-08-28T02:14:00.963Z,24.22
2022-08-28T02:17:03.968Z,24.22
2022-08-28T02:20:08.031Z,24.23
2022-08-28T02:23:11.267Z,24.21
2022-08-28T02:26:16.195Z,24.22
2022-08-28T02:29:19.282Z,24.21
2022-08-28T02:32:22.441Z,24.18
2022-08-28T02:35:25.735Z,24.17
2022-08-28T02:38:29.591Z,24.16
2022-08-28T02:41:35.473Z,24.17
2022-08-28T02:44:38.518Z,24.16
2022-08-28T02:47:43.462Z,24.15
2022-08-28T02:50:47.171Z,24.14
2022-08-28T02:53:52.111Z,24.13
2022-08-28T02:56:57.071Z,24.12
2022-08-28T03:00:00.043Z,24.13
2022-08-28T03:03:03.620Z,24.12
2022-08-28T03:06:07.578Z,24.12
2022-08-28T03:09:10.726Z,24.10
2022-08-28T03:12:17.007Z,24.08
2022-08-28T03:15:20.714Z,24.05
2022-08-28T03:18:24.512Z,24.05
2022-08-28T03:21:28.538Z,24.06
2022-08-28T03:24:31.542Z,24.05
2022-08-28T03:27:35.990Z,24.06
2022-08-28T03:30:39.123Z,24.05
2022-08-28T03:33:43.023Z,24.06
2022-08-28T03:36:46.254Z,24.05
2022-08-28T03:39:49.298Z,24.05
2022-08-28T03:42:53.829Z,24.05
2022-08-28T03:45:59.370Z,24.03
2022-08-28T03:49:03.703Z,24.03
2022-08-28T03:52:06.950Z,24.05
2022-08-28T03:55:12.313Z,24.03
2022-08-28T03:58:18.970Z,24.03
2022-08-28T04:01:22.798Z,24.02
2022-08-28T04:04:25.801Z,24.01
2022-08-28T04:07:28.874Z,23.98
2022-08-28T04:10:33.092Z,23.98
2022-08-28T04:13:37.527Z,23.98
2022-08-28T04:16:41.510Z,23.97
2022-08-28T04:19:45.110Z,23.97
2022-08-28T04:22:48.401Z,23.95
2022-08-28T04:25:58.362Z,23.95
2022-08-28T04:29:02.746Z,23.92
2022-08-28T04:32:05.855Z,23.92
2022-08-28T04:35:12.033Z,23.92
2022-08-28T04:38:15.250Z,23.92
2022-08-28T04:41:18.778Z,23.92
2022-08-28T04:44:23.130Z,23.91
2022-08-28T04:47:26.130Z,23.91
2022-08-28T04:50:29.102Z,23.90
2022-08-28T04:53:32.879Z,23.89
2022-08-28T04:56:35.857Z,23.89
2022-08-28T04:59:41.932Z,23.89
2022-08-28T05:02:45.022Z,23.87
2022-08-28T05:05:51.734Z,23.87
2022-08-28T05:08:55.297Z,23.89
2022-08-28T05:11:58.581Z,23.90
2022-08-28T05:15:03.073Z,23.91
2022-08-28T05:18:06.280Z,23.91
2022-08-28T05:21:14.510Z,23.91
2022-08-28T05:24:18.129Z,23.91
2022-08-28T05:27:21.503Z,23.90
2022-08-28T05:30:25.929Z,23.88
2022-08-28T05:33:28.965Z,23.87
2022-08-28T05:36:34.367Z,23.87
2022-08-28T05:39:37.345Z,23.86
2022-08-28T05:42:40.275Z,23.86
2022-08-28T05:45:44.848Z,23.83
2022-08-28T05:48:48.679Z,23.83
2022-08-28T05:51:52.444Z,23.82
2022-08-28T05:54:55.459Z,23.82
2022-08-28T05:58:18.682Z,23.81
2022-08-28T06:01:28.219Z,23.82
2022-08-28T06:04:32.048Z,23.83
2022-08-28T06:07:35.162Z,23.82
2022-08-28T06:10:44.750Z,23.82
2022-08-28T06:13:50.834Z,23.81
2022-08-28T06:16:57.014Z,23.82
2022-08-28T06:19:59.963Z,23.80
2022-08-28T06:23:02.909Z,23.80
2022-08-28T06:26:07.309Z,23.80
2022-08-28T06:29:12.518Z,23.79
2022-08-28T06:32:17.036Z,23.79
2022-08-28T06:35:20.174Z,23.78
2022-08-28T06:38:25.493Z,23.78
2022-08-28T06:41:32.083Z,23.78
2022-08-28T06:44:35.146Z,23.75
2022-08-28T06:47:39.745Z,23.75
2022-08-28T06:50:46.784Z,23.72
2022-08-28T06:53:49.919Z,23.71
2022-08-28T06:56:54.192Z,23.73
2022-08-28T06:59:57.414Z,23.73
2022-08-28T07:03:02.196Z,23.74
2022-08-28T07:06:07.471Z,23.73
2022-08-28T07:09:12.437Z,23.69
2022-08-28T07:12:15.526Z,23.68
2022-08-28T07:15:19.237Z,23.68
2022-08-28T07:18:23.742Z,23.68
2022-08-28T07:21:27.428Z,23.66
2022-08-28T07:24:30.535Z,23.65
2022-08-28T07:27:33.495Z,23.64
2022-08-28T07:30:36.505Z,23.64
2022-08-28T07:33:42.007Z,23.65
2022-08-28T07:36:45.361Z,23.65
2022-08-28T07:39:48.502Z,23.65
2022-08-28T07:43:09.149Z,23.66
2022-08-28T07:46:12.984Z,23.66
2022-08-28T07:49:17.643Z,23.67
2022-08-28T07:52:20.600Z,23.67
2022-08-28T07:55:23.610Z,23.68
2022-08-28T07:58:27.036Z,23.66
2022-08-28T08:01:31.478Z,23.68
2022-08-28T08:04:36.249Z,23.68
2022-08-28T08:07:39.933Z,23.68
2022-08-28T08:10:46.715Z,23.68
2022-08-28T08:13:50.949Z,23.69
2022-08-28T08:16:54.153Z,23.70
2022-08-28T08:19:58.558Z,23.71
2022-08-28T08:23:01.583Z,23.72
2022-08-28T08:26:07.027Z,23.71
2022-08-28T08:29:10.119Z,23.70
2022-08-28T08:32:13.585Z,23.70
2022-08-28T08:35:18.005Z,23.72
2022-08-28T08:38:21.117Z,23.69
2022-08-28T08:41:30.482Z,23.69
2022-08-28T08:44:35.764Z,23.67
2022-08-28T08:47:44.652Z,23.67
2022-08-28T08:50:49.782Z,23.68
2022-08-28T08:53:59.831Z,23.70
2022-08-28T08:57:03.793Z,23.70
2022-08-28T09:00:12.265Z,23.71
2022-08-28T09:03:23.865Z,23.72
2022-08-28T09:06:40.702Z,23.73
2022-08-28T09:09:53.333Z,23.72
2022-08-28T09:13:07.782Z,23.70
2022-08-28T09:16:22.136Z,23.70
2022-08-28T09:19:25.269Z,23.71
2022-08-28T09:22:30.137Z,23.72
2022-08-28T09:25:56.605Z,23.73
2022-08-28T09:29:06.077Z,23.74
2022-08-28T09:32:23.689Z,23.75
2022-08-28T09:35:29.341Z,23.73
2022-08-28T09:38:33.778Z,23.73
2022-08-28T09:41:57.487Z,23.73
2022-08-28T09:45:09.175Z,23.74
2022-08-28T09:48:24.186Z,23.72
2022-08-28T09:51:31.353Z,23.73
2022-08-28T09:54:40.891Z,23.70
2022-08-28T09:57:47.534Z,23.69
2022-08-28T10:00:54.854Z,23.69
2022-08-28T10:04:08.540Z,23.68
2022-08-28T10:07:18.433Z,23.67
2022-08-28T10:10:31.559Z,23.67
2022-08-28T10:13:40.389Z,23.70
2022-08-28T10:16:53.667Z,23.67
2022-08-28T10:20:04.519Z,23.69
2022-08-28T10:23:19.845Z,23.69
2022-08-28T10:26:34.688Z,23.71
2022-08-28T10:29:49.625Z,23.74
2022-08-28T10:33:15.534Z,23.76
2022-08-28T10:36:33.958Z,23.76
2022-08-28T10:39:48.789Z,23.76
2022-08-28T10:43:02.041Z,23.73
2022-08-28T10:46:07.350Z,23.73
2022-08-28T10:49:17.504Z,23.69
2022-08-28T10:52:25.278Z,23.68
2022-08-28T10:55:34.705Z,23.68
2022-08-28T10:58:42.326Z,23.68
2022-08-28T11:01:47.334Z,23.71
2022-08-28T11:04:53.260Z,23.70
2022-08-28T11:08:04.098Z,23.69
2022-08-28T11:11:13.222Z,23.69
2022-08-28T11:14:27.749Z,23.68
2022-08-28T11:17:42.085Z,23.70
2022-08-28T11:20:57.995Z,23.71
2022-08-28T11:24:09.314Z,23.72
2022-08-28T11:27:21.978Z,23.72
2022-08-28T11:30:35.580Z,23.72
2022-08-28T11:33:41.467Z,23.71
2022-08-28T11:37:03.527Z,23.69
2022-08-28T11:40:19.257Z,23.66
2022-08-28T11:43:39.546Z,23.64
2022-08-28T11:46:46.150Z,23.65
2022-08-28T11:49:49.282Z,23.63
2022-08-28T11:53:46.105Z,23.58
2022-08-28T11:57:00.331Z,23.57
2022-08-28T12:00:08.329Z,23.55
2022-08-28T12:03:15.564Z,23.56
2022-08-28T12:06:54.444Z,23.56
2022-08-28T12:10:01.737Z,23.53
2022-08-28T12:16:12.295Z,23.49
2022-08-28T12:19:29.305Z,23.48
2022-08-28T12:22:49.918Z,23.47
2022-08-28T12:26:01.655Z,23.47
2022-08-28T12:29:08.959Z,23.50
2022-08-28T12:32:26.670Z,23.48
2022-08-28T12:35:31.422Z,23.45
2022-08-28T12:38:36.311Z,23.43
2022-08-28T12:41:39.646Z,23.42
2022-08-28T12:44:42.683Z,23.38
2022-08-28T12:47:48.451Z,23.37
2022-08-28T12:50:59.470Z,23.43
2022-08-28T12:54:08.289Z,23.41
2022-08-28T12:57:14.594Z,23.35
2022-08-28T13:00:20.235Z,23.36
2022-08-28T13:03:23.406Z,23.36
2022-08-28T13:06:29.637Z,23.35
2022-08-28T13:09:34.547Z,23.39
2022-08-28T13:12:54.745Z,23.34
2022-08-28T13:16:02.032Z,23.34
2022-08-28T13:19:26.262Z,23.35
2022-08-28T13:22:34.911Z,23.32
2022-08-28T13:25:39.767Z,23.33
2022-08-28T13:28:44.370Z,23.34
2022-08-28T13:31:57.220Z,23.30
2022-08-28T13:35:12.949Z,23.31
2022-08-28T13:38:18.570Z,23.28
2022-08-28T13:41:23.036Z,23.27
2022-08-28T13:44:32.113Z,23.27
2022-08-28T13:47:35.135Z,23.26
2022-08-28T13:50:40.114Z,23.24
2022-08-28T13:53:43.156Z,23.26
2022-08-28T13:56:48.609Z,23.26
2022-08-28T13:59:55.538Z,23.25
2022-08-28T14:03:16.196Z,23.27
2022-08-28T14:06:19.274Z,23.26
2022-08-28T14:09:27.062Z,23.29
2022-08-28T14:12:33.082Z,23.31
2022-08-28T14:15:36.752Z,23.32
2022-08-28T14:18:39.834Z,23.31
2022-08-28T14:21:42.978Z,23.33
2022-08-28T14:24:46.861Z,23.34
2022-08-28T14:27:51.244Z,23.38
2022-08-28T14:30:56.161Z,23.42
2022-08-28T14:33:59.547Z,23.47
2022-08-28T14:37:02.779Z,23.49
2022-08-28T14:40:07.342Z,23.48
2022-08-28T14:43:12.874Z,23.48
2022-08-28T14:46:16.899Z,23.48
2022-08-28T14:49:21.113Z,23.49
2022-08-28T14:52:24.641Z,23.47
2022-08-28T14:55:28.002Z,23.49
2022-08-28T14:58:34.110Z,23.50
2022-08-28T15:01:40.604Z,23.50
2022-08-28T15:04:44.079Z,23.50
2022-08-28T15:07:47.016Z,23.53
2022-08-28T15:10:51.089Z,23.53
2022-08-28T15:13:58.022Z,23.54
2022-08-28T15:17:01.063Z,23.53
2022-08-28T15:20:05.857Z,23.54
2022-08-28T15:23:09.349Z,23.54
2022-08-28T15:26:15.585Z,23.53
2022-08-28T15:29:20.110Z,23.54
2022-08-28T15:32:23.500Z,23.52
2022-08-28T15:35:26.582Z,23.54
2022-08-28T15:38:49.665Z,23.53
2022-08-28T15:41:51.965Z,23.52
2022-08-28T15:44:57.071Z,23.54
2022-08-28T15:48:00.727Z,23.53
2022-08-28T15:51:03.729Z,23.55
2022-08-28T15:54:07.254Z,23.56
2022-08-28T15:57:10.267Z,23.55
2022-08-28T16:00:16.237Z,23.55
2022-08-28T16:03:19.390Z,23.55
2022-08-28T16:06:23.864Z,23.55
2022-08-28T16:09:26.909Z,23.55
2022-08-28T16:12:30.218Z,23.53
2022-08-28T16:15:35.175Z,23.54
2022-08-28T16:18:38.417Z,23.55
2022-08-28T16:21:42.617Z,23.57
2022-08-28T16:24:45.699Z,23.58
2022-08-28T16:27:48.716Z,23.57
2022-08-28T16:30:53.694Z,23.59
2022-08-28T16:33:56.915Z,23.62
2022-08-28T16:37:00.090Z,23.63
2022-08-28T16:40:03.809Z,23.63
2022-08-28T16:43:06.953Z,23.63
2022-08-28T16:46:13.398Z,23.64
2022-08-28T16:49:16.679Z,23.63
2022-08-28T16:52:20.067Z,23.66
2022-08-28T16:55:23.162Z,23.66
2022-08-28T16:58:26.298Z,23.66
2022-08-28T17:01:30.781Z,23.66
2022-08-28T17:04:33.890Z,23.68
2022-08-28T17:07:37.049Z,23.69
2022-08-28T17:10:40.137Z,23.68
2022-08-28T17:13:43.267Z,23.69
2022-08-28T17:16:47.721Z,23.69
2022-08-28T17:19:50.734Z,23.70
2022-08-28T17:22:52.750Z,23.71
2022-08-28T17:25:55.797Z,23.72
2022-08-28T17:28:58.822Z,23.71
2022-08-28T17:32:05.267Z,23.71
2022-08-28T17:35:09.286Z,23.72
2022-08-28T17:38:12.780Z,23.72
2022-08-28T17:41:15.922Z,23.74
2022-08-28T17:44:19.012Z,23.74
2022-08-28T17:47:27.408Z,23.77
2022-08-28T17:50:33.821Z,23.80
2022-08-28T17:53:37.238Z,23.83
2022-08-28T17:56:40.369Z,23.85
2022-08-28T17:59:43.984Z,23.87
2022-08-28T18:02:51.813Z,23.87
2022-08-28T18:05:54.849Z,23.89
2022-08-28T18:08:58.786Z,23.90
2022-08-28T18:12:03.077Z,23.92
2022-08-28T18:15:08.326Z,23.91
2022-08-28T18:18:13.847Z,23.93
2022-08-28T18:21:17.354Z,23.92
2022-08-28T18:24:20.459Z,23.92
2022-08-28T18:27:23.861Z,23.93
2022-08-28T18:30:28.206Z,23.92
2022-08-28T18:33:33.440Z,23.92
2022-08-28T18:36:36.694Z,23.91
2022-08-28T18:39:40.843Z,23.92
2022-08-28T18:42:45.378Z,23.92
2022-08-28T18:45:48.621Z,23.91
2022-08-28T18:48:53.897Z,23.92
2022-08-28T18:51:57.009Z,23.92
2022-08-28T18:55:02.484Z,23.90
2022-08-28T18:58:08.175Z,23.89
2022-08-28T19:01:16.009Z,23.89
2022-08-28T19:04:20.835Z,23.89
2022-08-28T19:07:23.834Z,23.88
2022-08-28T19:10:34.051Z,23.88
2022-08-28T19:13:38.555Z,23.88
2022-08-28T19:16:41.569Z,23.87
2022-08-28T19:19:45.990Z,23.87
2022-08-28T19:22:49.745Z,23.88
2022-08-28T19:25:52.763Z,23.88
2022-08-28T19:28:56.899Z,23.87
2022-08-28T19:31:59.982Z,23.85
2022-08-28T19:35:04.834Z,23.83
2022-08-28T19:38:07.971Z,23.81
2022-08-28T19:41:12.818Z,23.80
2022-08-28T19:44:16.047Z,23.80
2022-08-28T19:47:19.240Z,23.80
2022-08-28T19:50:23.802Z,23.79
2022-08-28T19:53:26.842Z,23.79
2022-08-28T19:56:31.573Z,23.78
2022-08-28T19:59:35.584Z,23.77
2022-08-28T20:02:38.643Z,23.78
2022-08-28T20:05:44.095Z,23.78
2022-08-28T20:08:47.124Z,23.78
2022-08-28T20:11:50.533Z,23.78
2022-08-28T20:14:53.627Z,23.80
2022-08-28T20:17:57.766Z,23.79
2022-08-28T20:21:02.178Z,23.79
2022-08-28T20:24:05.774Z,23.78
2022-08-28T20:27:08.955Z,23.78
2022-08-28T20:30:12.881Z,23.78
2022-08-28T20:33:15.902Z,23.79
2022-08-28T20:36:21.539Z,23.79
2022-08-28T20:39:24.980Z,23.79
2022-08-28T20:42:31.685Z,23.79
2022-08-28T20:45:34.926Z,23.78
2022-08-28T20:48:38.304Z,23.79
2022-08-28T20:52:01.260Z,23.79
2022-08-28T20:55:05.398Z,23.80
2022-08-28T20:58:08.455Z,23.80
2022-08-28T21:01:13.985Z,23.81
2022-08-28T21:04:17.018Z,23.80
2022-08-28T21:07:23.296Z,23.81
2022-08-28T21:10:26.325Z,23.83
2022-08-28T21:13:29.511Z,23.86
2022-08-28T21:16:32.621Z,23.86
2022-08-28T21:19:40.138Z,23.86
2022-08-28T21:22:45.162Z,23.86
2022-08-28T21:25:48.486Z,23.84
2022-08-28T21:28:52.251Z,23.84
2022-08-28T21:31:55.322Z,23.84
2022-08-28T21:34:58.508Z,23.84
2022-08-28T21:38:03.007Z,23.84
2022-08-28T21:41:09.638Z,23.83
2022-08-28T21:44:14.112Z,23.84
2022-08-28T21:47:17.438Z,23.82
2022-08-28T21:50:20.847Z,23.80
2022-08-28T21:53:25.548Z,23.81
2022-08-28T21:56:29.150Z,23.80
2022-08-28T21:59:37.861Z,23.79
2022-08-28T22:02:41.166Z,23.77
2022-08-28T22:05:44.794Z,23.75
2022-08-28T22:08:49.877Z,23.74
2022-08-28T22:11:52.887Z,23.73
2022-08-28T22:14:55.922Z,23.71
2022-08-28T22:17:58.945Z,23.71
2022-08-28T22:21:19.906Z,23.70
2022-08-28T22:24:24.656Z,23.69
2022-08-28T22:27:27.814Z,23.69
2022-08-28T22:30:30.909Z,23.69
2022-08-28T22:33:36.266Z,23.68
2022-08-28T22:36:39.314Z,23.67
2022-08-28T22:39:44.067Z,23.66
2022-08-28T22:42:47.479Z,23.65
2022-08-28T22:45:50.594Z,23.64
2022-08-28T22:48:53.842Z,23.63
2022-08-28T22:51:56.813Z,23.62
2022-08-28T22:55:01.210Z,23.62
2022-08-28T22:58:06.342Z,23.61
2022-08-28T23:01:12.331Z,23.60
2022-08-28T23:04:17.071Z,23.60
2022-08-28T23:07:20.181Z,23.61
2022-08-28T23:10:42.191Z,23.60
2022-08-28T23:13:47.732Z,23.59
2022-08-28T23:16:52.078Z,23.60
2022-08-28T23:19:55.270Z,23.60
2022-08-28T23:22:58.414Z,23.61
2022-08-28T23:26:02.926Z,23.60
2022-08-28T23:29:06.133Z,23.60
2022-08-28T23:32:09.322Z,23.59
2022-08-28T23:35:16.342Z,23.58
2022-08-28T23:38:20.221Z,23.59
2022-08-28T23:41:24.907Z,23.59
2022-08-28T23:44:28.671Z,23.58
2022-08-28T23:47:31.738Z,23.58
2022-08-28T23:50:34.994Z,23.57
2022-08-28T23:53:41.274Z,23.56
2022-08-28T23:56:45.749Z,23.57
2022-08-28T23:59:48.884Z,23.54
